sensor_id;sensor_type;location;lat;lon;timestamp;P1;durP1;ratioP1;P2;durP2;ratioP2
16502;SDS011;53067;48.114;11.694;2022-07-24T00:02:10;10.05;;;9.20;;
16502;SDS011;53067;48.114;11.694;2022-07-24T00:04:37;9.58;;;8.78;;
16502;SDS011;53067;48.114;11.694;2022-07-24T00:07:05;9.85;;;9.13;;
16502;SDS011;53067;48.114;11.694;2022-07-24T00:09:32;10.10;;;9.30;;
16502;SDS011;53067;48.114;11.694;2022-07-24T00:12:00;10.53;;;9.63;;
16502;SDS011;53067;48.114;11.694;2022-07-24T00:14:28;9.50;;;8.60;;
16502;SDS011;53067;48.114;11.694;2022-07-24T00:16:55;10.08;;;9.08;;
16502;SDS011;53067;48.114;11.694;2022-07-24T00:19:23;11.35;;;10.23;;
16502;SDS011;53067;48.114;11.694;2022-07-24T00:21:51;9.80;;;9.10;;
16502;SDS011;53067;48.114;11.694;2022-07-24T00:24:18;10.80;;;9.90;;
16502;SDS011;53067;48.114;11.694;2022-07-24T00:26:46;10.15;;;9.45;;
16502;SDS011;53067;48.114;11.694;2022-07-24T00:29:13;10.20;;;9.40;;
16502;SDS011;53067;48.114;11.694;2022-07-24T00:31:41;10.08;;;9.13;;
16502;SDS011;53067;48.114;11.694;2022-07-24T00:34:09;9.75;;;9.00;;
16502;SDS011;53067;48.114;11.694;2022-07-24T00:36:36;10.53;;;9.53;;
16502;SDS011;53067;48.114;11.694;2022-07-24T00:39:05;9.88;;;9.08;;
16502;SDS011;53067;48.114;11.694;2022-07-24T00:41:32;9.63;;;8.85;;
16502;SDS011;53067;48.114;11.694;2022-07-24T00:44:04;9.95;;;9.15;;
16502;SDS011;53067;48.114;11.694;2022-07-24T00:46:34;9.68;;;8.95;;
16502;SDS011;53067;48.114;11.694;2022-07-24T00:49:04;11.20;;;10.35;;
16502;SDS011;53067;48.114;11.694;2022-07-24T00:51:33;10.50;;;9.58;;
16502;SDS011;53067;48.114;11.694;2022-07-24T00:54:06;9.65;;;8.98;;
16502;SDS011;53067;48.114;11.694;2022-07-24T00:56:31;10.55;;;9.53;;
16502;SDS011;53067;48.114;11.694;2022-07-24T00:58:59;9.73;;;8.90;;
16502;SDS011;53067;48.114;11.694;2022-07-24T01:01:28;10.15;;;9.25;;
16502;SDS011;53067;48.114;11.694;2022-07-24T01:03:56;9.93;;;9.13;;
16502;SDS011;53067;48.114;11.694;2022-07-24T01:06:24;9.75;;;8.95;;
16502;SDS011;53067;48.114;11.694;2022-07-24T01:08:52;9.68;;;8.78;;
16502;SDS011;53067;48.114;11.694;2022-07-24T01:11:20;10.13;;;9.30;;
16502;SDS011;53067;48.114;11.694;2022-07-24T01:13:49;10.25;;;9.35;;
16502;SDS011;53067;48.114;11.694;2022-07-24T01:16:17;9.35;;;8.63;;
16502;SDS011;53067;48.114;11.694;2022-07-24T01:18:44;10.70;;;9.80;;
16502;SDS011;53067;48.114;11.694;2022-07-24T01:21:12;10.08;;;9.28;;
16502;SDS011;53067;48.114;11.694;2022-07-24T01:23:40;10.32;;;9.50;;
16502;SDS011;53067;48.114;11.694;2022-07-24T01:26:07;10.43;;;9.63;;
16502;SDS011;53067;48.114;11.694;2022-07-24T01:28:35;10.45;;;9.33;;
16502;SDS011;53067;48.114;11.694;2022-07-24T01:31:04;10.53;;;9.78;;
16502;SDS011;53067;48.114;11.694;2022-07-24T01:33:31;9.33;;;8.63;;
16502;SDS011;53067;48.114;11.694;2022-07-24T01:35:59;9.78;;;8.98;;
16502;SDS011;53067;48.114;11.694;2022-07-24T01:38:26;10.28;;;9.40;;
16502;SDS011;53067;48.114;11.694;2022-07-24T01:40:54;10.48;;;9.68;;
16502;SDS011;53067;48.114;11.694;2022-07-24T01:43:22;10.32;;;9.53;;
16502;SDS011;53067;48.114;11.694;2022-07-24T01:45:49;10.35;;;9.50;;
16502;SDS011;53067;48.114;11.694;2022-07-24T01:48:17;10.13;;;9.33;;
16502;SDS011;53067;48.114;11.694;2022-07-24T01:50:44;10.40;;;9.60;;
16502;SDS011;53067;48.114;11.694;2022-07-24T01:53:12;10.30;;;9.40;;
16502;SDS011;53067;48.114;11.694;2022-07-24T01:55:39;10.05;;;9.25;;
16502;SDS011;53067;48.114;11.694;2022-07-24T01:58:07;9.95;;;9.18;;
16502;SDS011;53067;48.114;11.694;2022-07-24T02:00:34;10.05;;;9.18;;
16502;SDS011;53067;48.114;11.694;2022-07-24T02:03:02;10.65;;;9.75;;
16502;SDS011;53067;48.114;11.694;2022-07-24T02:05:30;10.00;;;9.20;;
16502;SDS011;53067;48.114;11.694;2022-07-24T02:07:58;10.43;;;9.53;;
16502;SDS011;53067;48.114;11.694;2022-07-24T02:10:27;9.48;;;8.78;;
16502;SDS011;53067;48.114;11.694;2022-07-24T02:12:56;10.50;;;9.50;;
16502;SDS011;53067;48.114;11.694;2022-07-24T02:15:24;10.78;;;9.78;;
16502;SDS011;53067;48.114;11.694;2022-07-24T02:17:55;9.93;;;9.23;;
16502;SDS011;53067;48.114;11.694;2022-07-24T02:20:22;9.68;;;8.78;;
16502;SDS011;53067;48.114;11.694;2022-07-24T02:22:51;9.85;;;9.15;;
16502;SDS011;53067;48.114;11.694;2022-07-24T02:25:19;10.45;;;9.55;;
16502;SDS011;53067;48.114;11.694;2022-07-24T02:27:47;10.20;;;9.40;;
16502;SDS011;53067;48.114;11.694;2022-07-24T02:30:15;9.58;;;8.78;;
16502;SDS011;53067;48.114;11.694;2022-07-24T02:32:45;10.23;;;9.43;;
16502;SDS011;53067;48.114;11.694;2022-07-24T02:35:12;10.60;;;9.78;;
16502;SDS011;53067;48.114;11.694;2022-07-24T02:37:41;9.90;;;9.20;;
16502;SDS011;53067;48.114;11.694;2022-07-24T02:40:10;10.78;;;9.63;;
16502;SDS011;53067;48.114;11.694;2022-07-24T02:42:39;9.50;;;8.80;;
16502;SDS011;53067;48.114;11.694;2022-07-24T02:45:07;9.65;;;8.85;;
16502;SDS011;53067;48.114;11.694;2022-07-24T02:47:55;8.58;;;7.78;;
16502;SDS011;53067;48.114;11.694;2022-07-24T02:50:24;10.43;;;9.63;;
16502;SDS011;53067;48.114;11.694;2022-07-24T02:52:53;10.32;;;9.45;;
16502;SDS011;53067;48.114;11.694;2022-07-24T02:55:21;10.40;;;9.50;;
16502;SDS011;53067;48.114;11.694;2022-07-24T02:57:48;10.70;;;9.78;;
16502;SDS011;53067;48.114;11.694;2022-07-24T03:00:16;10.03;;;9.08;;
16502;SDS011;53067;48.114;11.694;2022-07-24T03:02:45;9.68;;;8.98;;
16502;SDS011;53067;48.114;11.694;2022-07-24T03:05:13;10.43;;;9.60;;
16502;SDS011;53067;48.114;11.694;2022-07-24T03:07:41;9.73;;;9.03;;
16502;SDS011;53067;48.114;11.694;2022-07-24T03:10:10;9.83;;;9.03;;
16502;SDS011;53067;48.114;11.694;2022-07-24T03:12:38;10.98;;;9.98;;
16502;SDS011;53067;48.114;11.694;2022-07-24T03:15:07;10.85;;;9.88;;
16502;SDS011;53067;48.114;11.694;2022-07-24T03:17:35;10.50;;;9.70;;
16502;SDS011;53067;48.114;11.694;2022-07-24T03:20:03;9.50;;;8.70;;
16502;SDS011;53067;48.114;11.694;2022-07-24T03:22:32;10.03;;;9.23;;
16502;SDS011;53067;48.114;11.694;2022-07-24T03:25:00;10.95;;;9.95;;
16502;SDS011;53067;48.114;11.694;2022-07-24T03:27:27;10.63;;;9.73;;
16502;SDS011;53067;48.114;11.694;2022-07-24T03:29:55;10.00;;;9.10;;
16502;SDS011;53067;48.114;11.694;2022-07-24T03:32:22;10.20;;;9.40;;
16502;SDS011;53067;48.114;11.694;2022-07-24T03:34:50;10.72;;;9.83;;
16502;SDS011;53067;48.114;11.694;2022-07-24T03:37:17;10.30;;;9.50;;
16502;SDS011;53067;48.114;11.694;2022-07-24T03:39:45;10.85;;;9.75;;
16502;SDS011;53067;48.114;11.694;2022-07-24T03:42:12;10.10;;;9.25;;
16502;SDS011;53067;48.114;11.694;2022-07-24T03:44:40;9.70;;;9.00;;
16502;SDS011;53067;48.114;11.694;2022-07-24T03:47:08;11.22;;;10.30;;
16502;SDS011;53067;48.114;11.694;2022-07-24T03:49:35;10.40;;;9.63;;
16502;SDS011;53067;48.114;11.694;2022-07-24T03:52:03;10.58;;;9.78;;
16502;SDS011;53067;48.114;11.694;2022-07-24T03:54:31;10.40;;;9.60;;
16502;SDS011;53067;48.114;11.694;2022-07-24T03:56:58;10.00;;;9.18;;
16502;SDS011;53067;48.114;11.694;2022-07-24T03:59:26;12.53;;;10.00;;
16502;SDS011;53067;48.114;11.694;2022-07-24T04:01:53;10.85;;;10.05;;
16502;SDS011;53067;48.114;11.694;2022-07-24T04:04:21;10.38;;;9.48;;
16502;SDS011;53067;48.114;11.694;2022-07-24T04:06:48;10.48;;;9.68;;
16502;SDS011;53067;48.114;11.694;2022-07-24T04:09:21;10.65;;;9.63;;
16502;SDS011;53067;48.114;11.694;2022-07-24T04:11:49;11.20;;;10.30;;
16502;SDS011;53067;48.114;11.694;2022-07-24T04:14:16;9.80;;;9.03;;
16502;SDS011;53067;48.114;11.694;2022-07-24T04:16:44;10.85;;;9.88;;
16502;SDS011;53067;48.114;11.694;2022-07-24T04:19:12;11.08;;;9.95;;
16502;SDS011;53067;48.114;11.694;2022-07-24T04:21:40;11.50;;;10.60;;
16502;SDS011;53067;48.114;11.694;2022-07-24T04:24:08;11.20;;;10.20;;
16502;SDS011;53067;48.114;11.694;2022-07-24T04:26:35;10.98;;;10.08;;
16502;SDS011;53067;48.114;11.694;2022-07-24T04:29:03;10.60;;;9.73;;
16502;SDS011;53067;48.114;11.694;2022-07-24T04:31:30;10.65;;;9.75;;
16502;SDS011;53067;48.114;11.694;2022-07-24T04:33:58;11.40;;;10.40;;
16502;SDS011;53067;48.114;11.694;2022-07-24T04:36:25;10.63;;;9.83;;
16502;SDS011;53067;48.114;11.694;2022-07-24T04:38:53;10.80;;;9.80;;
16502;SDS011;53067;48.114;11.694;2022-07-24T04:41:20;11.83;;;10.80;;
16502;SDS011;53067;48.114;11.694;2022-07-24T04:43:48;11.18;;;10.28;;
16502;SDS011;53067;48.114;11.694;2022-07-24T04:46:16;11.12;;;10.03;;
16502;SDS011;53067;48.114;11.694;2022-07-24T04:48:44;11.15;;;10.23;;
16502;SDS011;53067;48.114;11.694;2022-07-24T04:51:12;11.53;;;10.53;;
16502;SDS011;53067;48.114;11.694;2022-07-24T04:53:39;10.68;;;9.78;;
16502;SDS011;53067;48.114;11.694;2022-07-24T04:56:07;10.50;;;9.60;;
16502;SDS011;53067;48.114;11.694;2022-07-24T04:58:34;10.50;;;9.58;;
16502;SDS011;53067;48.114;11.694;2022-07-24T05:01:02;11.08;;;10.18;;
16502;SDS011;53067;48.114;11.694;2022-07-24T05:03:30;11.33;;;10.35;;
16502;SDS011;53067;48.114;11.694;2022-07-24T05:05:57;10.72;;;9.83;;
16502;SDS011;53067;48.114;11.694;2022-07-24T05:08:25;10.85;;;9.95;;
16502;SDS011;53067;48.114;11.694;2022-07-24T05:10:52;11.40;;;10.30;;
16502;SDS011;53067;48.114;11.694;2022-07-24T05:13:20;11.08;;;10.18;;
16502;SDS011;53067;48.114;11.694;2022-07-24T05:15:47;11.08;;;10.08;;
16502;SDS011;53067;48.114;11.694;2022-07-24T05:18:15;11.10;;;10.05;;
16502;SDS011;53067;48.114;11.694;2022-07-24T05:20:42;11.03;;;10.13;;
16502;SDS011;53067;48.114;11.694;2022-07-24T05:23:10;11.30;;;10.30;;
16502;SDS011;53067;48.114;11.694;2022-07-24T05:25:37;11.60;;;10.70;;
16502;SDS011;53067;48.114;11.694;2022-07-24T05:28:05;11.15;;;10.15;;
16502;SDS011;53067;48.114;11.694;2022-07-24T05:30:32;11.45;;;10.45;;
16502;SDS011;53067;48.114;11.694;2022-07-24T05:33:00;12.30;;;11.12;;
16502;SDS011;53067;48.114;11.694;2022-07-24T05:35:27;12.03;;;10.93;;
16502;SDS011;53067;48.114;11.694;2022-07-24T05:37:55;11.63;;;10.63;;
16502;SDS011;53067;48.114;11.694;2022-07-24T05:40:23;12.23;;;11.05;;
16502;SDS011;53067;48.114;11.694;2022-07-24T05:42:51;12.05;;;10.95;;
16502;SDS011;53067;48.114;11.694;2022-07-24T05:45:18;12.37;;;11.35;;
16502;SDS011;53067;48.114;11.694;2022-07-24T05:47:46;12.30;;;11.20;;
16502;SDS011;53067;48.114;11.694;2022-07-24T05:50:13;12.35;;;11.22;;
16502;SDS011;53067;48.114;11.694;2022-07-24T05:52:41;11.80;;;10.78;;
16502;SDS011;53067;48.114;11.694;2022-07-24T05:55:09;12.75;;;11.65;;
16502;SDS011;53067;48.114;11.694;2022-07-24T05:57:37;12.60;;;11.50;;
16502;SDS011;53067;48.114;11.694;2022-07-24T06:00:05;12.53;;;11.45;;
16502;SDS011;53067;48.114;11.694;2022-07-24T06:02:34;11.63;;;10.53;;
16502;SDS011;53067;48.114;11.694;2022-07-24T06:05:01;12.07;;;10.95;;
16502;SDS011;53067;48.114;11.694;2022-07-24T06:07:29;12.33;;;11.30;;
16502;SDS011;53067;48.114;11.694;2022-07-24T06:09:56;12.55;;;11.35;;
16502;SDS011;53067;48.114;11.694;2022-07-24T06:12:24;11.93;;;10.93;;
16502;SDS011;53067;48.114;11.694;2022-07-24T06:14:51;12.18;;;11.22;;
16502;SDS011;53067;48.114;11.694;2022-07-24T06:17:19;12.33;;;11.33;;
16502;SDS011;53067;48.114;11.694;2022-07-24T06:19:46;12.00;;;11.00;;
16502;SDS011;53067;48.114;11.694;2022-07-24T06:22:14;11.90;;;10.90;;
16502;SDS011;53067;48.114;11.694;2022-07-24T06:24:41;11.45;;;10.45;;
16502;SDS011;53067;48.114;11.694;2022-07-24T06:27:09;11.97;;;10.98;;
16502;SDS011;53067;48.114;11.694;2022-07-24T06:29:36;12.47;;;11.33;;
16502;SDS011;53067;48.114;11.694;2022-07-24T06:32:04;11.85;;;10.80;;
16502;SDS011;53067;48.114;11.694;2022-07-24T06:34:32;11.57;;;10.55;;
16502;SDS011;53067;48.114;11.694;2022-07-24T06:37:01;12.25;;;11.10;;
16502;SDS011;53067;48.114;11.694;2022-07-24T06:39:29;11.00;;;10.18;;
16502;SDS011;53067;48.114;11.694;2022-07-24T06:41:56;11.18;;;10.18;;
16502;SDS011;53067;48.114;11.694;2022-07-24T06:44:24;11.15;;;10.15;;
16502;SDS011;53067;48.114;11.694;2022-07-24T06:46:52;10.82;;;9.90;;
16502;SDS011;53067;48.114;11.694;2022-07-24T06:49:19;10.20;;;9.35;;
16502;SDS011;53067;48.114;11.694;2022-07-24T06:51:47;11.08;;;9.80;;
16502;SDS011;53067;48.114;11.694;2022-07-24T06:54:14;10.50;;;9.73;;
16502;SDS011;53067;48.114;11.694;2022-07-24T06:56:42;10.20;;;9.40;;
16502;SDS011;53067;48.114;11.694;2022-07-24T06:59:10;9.65;;;8.93;;
16502;SDS011;53067;48.114;11.694;2022-07-24T07:01:37;10.00;;;9.15;;
16502;SDS011;53067;48.114;11.694;2022-07-24T07:04:17;10.45;;;9.63;;
16502;SDS011;53067;48.114;11.694;2022-07-24T07:06:44;9.78;;;8.95;;
16502;SDS011;53067;48.114;11.694;2022-07-24T07:09:12;9.98;;;9.10;;
16502;SDS011;53067;48.114;11.694;2022-07-24T07:11:40;10.28;;;9.45;;
16502;SDS011;53067;48.114;11.694;2022-07-24T07:14:07;9.58;;;8.88;;
16502;SDS011;53067;48.114;11.694;2022-07-24T07:16:35;10.08;;;9.18;;
16502;SDS011;53067;48.114;11.694;2022-07-24T07:19:02;9.73;;;8.83;;
16502;SDS011;53067;48.114;11.694;2022-07-24T07:21:30;9.08;;;8.25;;
16502;SDS011;53067;48.114;11.694;2022-07-24T07:23:58;9.13;;;8.30;;
16502;SDS011;53067;48.114;11.694;2022-07-24T07:26:25;9.08;;;8.18;;
16502;SDS011;53067;48.114;11.694;2022-07-24T07:28:53;8.90;;;8.28;;
16502;SDS011;53067;48.114;11.694;2022-07-24T07:31:20;9.60;;;8.80;;
16502;SDS011;53067;48.114;11.694;2022-07-24T07:33:50;9.18;;;8.40;;
16502;SDS011;53067;48.114;11.694;2022-07-24T07:36:17;8.75;;;8.05;;
16502;SDS011;53067;48.114;11.694;2022-07-24T07:38:45;10.03;;;9.20;;
16502;SDS011;53067;48.114;11.694;2022-07-24T07:41:13;11.18;;;8.75;;
16502;SDS011;53067;48.114;11.694;2022-07-24T07:43:40;8.98;;;8.35;;
16502;SDS011;53067;48.114;11.694;2022-07-24T07:46:08;9.70;;;8.90;;
16502;SDS011;53067;48.114;11.694;2022-07-24T07:48:35;9.08;;;8.30;;
16502;SDS011;53067;48.114;11.694;2022-07-24T07:51:03;8.78;;;7.97;;
16502;SDS011;53067;48.114;11.694;2022-07-24T07:53:31;8.95;;;8.15;;
16502;SDS011;53067;48.114;11.694;2022-07-24T07:55:58;9.25;;;8.55;;
16502;SDS011;53067;48.114;11.694;2022-07-24T07:58:27;8.63;;;8.03;;
16502;SDS011;53067;48.114;11.694;2022-07-24T08:00:54;7.85;;;7.28;;
16502;SDS011;53067;48.114;11.694;2022-07-24T08:03:22;8.20;;;7.60;;
16502;SDS011;53067;48.114;11.694;2022-07-24T08:05:49;8.33;;;7.62;;
16502;SDS011;53067;48.114;11.694;2022-07-24T08:08:17;8.48;;;7.78;;
16502;SDS011;53067;48.114;11.694;2022-07-24T08:10:45;8.75;;;7.92;;
16502;SDS011;53067;48.114;11.694;2022-07-24T08:13:12;9.05;;;8.35;;
16502;SDS011;53067;48.114;11.694;2022-07-24T08:15:41;8.03;;;7.53;;
16502;SDS011;53067;48.114;11.694;2022-07-24T08:18:08;8.90;;;8.13;;
16502;SDS011;53067;48.114;11.694;2022-07-24T08:20:36;8.93;;;8.25;;
16502;SDS011;53067;48.114;11.694;2022-07-24T08:23:04;7.97;;;7.28;;
16502;SDS011;53067;48.114;11.694;2022-07-24T08:25:31;8.30;;;7.60;;
16502;SDS011;53067;48.114;11.694;2022-07-24T08:27:59;7.60;;;7.10;;
16502;SDS011;53067;48.114;11.694;2022-07-24T08:30:26;7.90;;;7.30;;
16502;SDS011;53067;48.114;11.694;2022-07-24T08:32:54;7.87;;;7.30;;
16502;SDS011;53067;48.114;11.694;2022-07-24T08:35:21;8.73;;;8.13;;
16502;SDS011;53067;48.114;11.694;2022-07-24T08:37:49;8.45;;;7.75;;
16502;SDS011;53067;48.114;11.694;2022-07-24T08:40:17;8.45;;;7.80;;
16502;SDS011;53067;48.114;11.694;2022-07-24T08:42:45;8.50;;;7.60;;
16502;SDS011;53067;48.114;11.694;2022-07-24T08:45:13;7.78;;;7.15;;
16502;SDS011;53067;48.114;11.694;2022-07-24T08:47:41;7.70;;;7.20;;
16502;SDS011;53067;48.114;11.694;2022-07-24T08:50:10;8.33;;;7.62;;
16502;SDS011;53067;48.114;11.694;2022-07-24T08:52:38;8.50;;;7.80;;
16502;SDS011;53067;48.114;11.694;2022-07-24T08:55:06;8.10;;;7.42;;
16502;SDS011;53067;48.114;11.694;2022-07-24T08:57:34;8.60;;;7.80;;
16502;SDS011;53067;48.114;11.694;2022-07-24T09:00:02;8.33;;;7.53;;
16502;SDS011;53067;48.114;11.694;2022-07-24T09:02:39;8.05;;;7.35;;
16502;SDS011;53067;48.114;11.694;2022-07-24T09:05:07;7.70;;;7.20;;
16502;SDS011;53067;48.114;11.694;2022-07-24T09:08:10;7.80;;;7.30;;
16502;SDS011;53067;48.114;11.694;2022-07-24T09:10:59;7.58;;;7.00;;
16502;SDS011;53067;48.114;11.694;2022-07-24T09:13:30;8.38;;;7.65;;
16502;SDS011;53067;48.114;11.694;2022-07-24T09:16:18;8.23;;;7.62;;
16502;SDS011;53067;48.114;11.694;2022-07-24T09:19:04;8.18;;;7.58;;
16502;SDS011;53067;48.114;11.694;2022-07-24T09:21:36;8.25;;;7.58;;
16502;SDS011;53067;48.114;11.694;2022-07-24T09:24:15;7.37;;;6.85;;
16502;SDS011;53067;48.114;11.694;2022-07-24T09:26:52;7.50;;;6.95;;
16502;SDS011;53067;48.114;11.694;2022-07-24T09:29:24;7.60;;;7.00;;
16502;SDS011;53067;48.114;11.694;2022-07-24T09:34:41;7.33;;;6.67;;
16502;SDS011;53067;48.114;11.694;2022-07-24T09:37:09;8.18;;;7.58;;
16502;SDS011;53067;48.114;11.694;2022-07-24T09:39:40;7.60;;;7.00;;
16502;SDS011;53067;48.114;11.694;2022-07-24T09:42:29;8.08;;;7.47;;
16502;SDS011;53067;48.114;11.694;2022-07-24T09:44:59;7.60;;;7.10;;
16502;SDS011;53067;48.114;11.694;2022-07-24T09:47:48;7.83;;;6.97;;
16502;SDS011;53067;48.114;11.694;2022-07-24T09:50:18;7.40;;;6.90;;
16502;SDS011;53067;48.114;11.694;2022-07-24T09:52:48;7.37;;;6.87;;
16502;SDS011;53067;48.114;11.694;2022-07-24T09:55:19;7.80;;;7.12;;
16502;SDS011;53067;48.114;11.694;2022-07-24T09:57:48;8.70;;;7.87;;
16502;SDS011;53067;48.114;11.694;2022-07-24T10:00:16;7.85;;;7.25;;
16502;SDS011;53067;48.114;11.694;2022-07-24T10:03:04;6.97;;;6.47;;
16502;SDS011;53067;48.114;11.694;2022-07-24T10:05:34;7.42;;;6.92;;
16502;SDS011;53067;48.114;11.694;2022-07-24T10:08:05;8.05;;;7.45;;
16502;SDS011;53067;48.114;11.694;2022-07-24T10:10:33;7.40;;;6.87;;
16502;SDS011;53067;48.114;11.694;2022-07-24T10:13:03;6.95;;;6.35;;
16502;SDS011;53067;48.114;11.694;2022-07-24T10:15:31;7.37;;;6.87;;
16502;SDS011;53067;48.114;11.694;2022-07-24T10:18:07;7.28;;;6.78;;
16502;SDS011;53067;48.114;11.694;2022-07-24T10:20:43;7.83;;;7.22;;
16502;SDS011;53067;48.114;11.694;2022-07-24T10:23:30;7.33;;;6.83;;
16502;SDS011;53067;48.114;11.694;2022-07-24T10:26:06;7.83;;;7.22;;
16502;SDS011;53067;48.114;11.694;2022-07-24T10:28:38;7.65;;;7.15;;
16502;SDS011;53067;48.114;11.694;2022-07-24T10:31:25;8.33;;;7.72;;
16502;SDS011;53067;48.114;11.694;2022-07-24T10:33:53;8.45;;;7.72;;
16502;SDS011;53067;48.114;11.694;2022-07-24T10:36:25;7.85;;;7.35;;
16502;SDS011;53067;48.114;11.694;2022-07-24T10:38:59;8.40;;;7.80;;
16502;SDS011;53067;48.114;11.694;2022-07-24T10:41:25;8.13;;;7.20;;
16502;SDS011;53067;48.114;11.694;2022-07-24T10:52:04;8.35;;;7.75;;
16502;SDS011;53067;48.114;11.694;2022-07-24T10:54:32;7.75;;;7.25;;
16502;SDS011;53067;48.114;11.694;2022-07-24T10:56:59;7.47;;;6.97;;
16502;SDS011;53067;48.114;11.694;2022-07-24T10:59:34;7.35;;;6.85;;
16502;SDS011;53067;48.114;11.694;2022-07-24T11:02:24;7.83;;;7.22;;
16502;SDS011;53067;48.114;11.694;2022-07-24T11:05:32;7.83;;;7.22;;
16502;SDS011;53067;48.114;11.694;2022-07-24T11:08:22;8.08;;;7.47;;
16502;SDS011;53067;48.114;11.694;2022-07-24T11:10:45;8.23;;;7.62;;
16502;SDS011;53067;48.114;11.694;2022-07-24T11:26:50;7.53;;;6.97;;
16502;SDS011;53067;48.114;11.694;2022-07-24T11:29:23;7.17;;;6.67;;
16502;SDS011;53067;48.114;11.694;2022-07-24T11:31:57;8.40;;;7.70;;
16502;SDS011;53067;48.114;11.694;2022-07-24T11:34:30;7.85;;;7.20;;
16502;SDS011;53067;48.114;11.694;2022-07-24T11:36:59;8.15;;;7.55;;
16502;SDS011;53067;48.114;11.694;2022-07-24T11:39:34;7.65;;;6.90;;
16502;SDS011;53067;48.114;11.694;2022-07-24T11:42:04;7.28;;;6.83;;
16502;SDS011;53067;48.114;11.694;2022-07-24T11:44:41;7.50;;;6.95;;
16502;SDS011;53067;48.114;11.694;2022-07-24T11:47:16;7.65;;;7.15;;
16502;SDS011;53067;48.114;11.694;2022-07-24T11:49:49;8.05;;;7.30;;
16502;SDS011;53067;48.114;11.694;2022-07-24T11:52:38;7.55;;;6.85;;
16502;SDS011;53067;48.114;11.694;2022-07-24T11:55:12;7.62;;;7.12;;
16502;SDS011;53067;48.114;11.694;2022-07-24T11:57:40;8.00;;;7.40;;
16502;SDS011;53067;48.114;11.694;2022-07-24T12:00:15;8.08;;;7.47;;
16502;SDS011;53067;48.114;11.694;2022-07-24T12:02:43;7.70;;;7.10;;
16502;SDS011;53067;48.114;11.694;2022-07-24T12:05:13;7.95;;;7.28;;
16502;SDS011;53067;48.114;11.694;2022-07-24T12:07:42;8.03;;;7.42;;
16502;SDS011;53067;48.114;11.694;2022-07-24T12:10:09;8.05;;;7.45;;
16502;SDS011;53067;48.114;11.694;2022-07-24T12:15:24;7.45;;;6.95;;
16502;SDS011;53067;48.114;11.694;2022-07-24T12:20:28;8.30;;;7.60;;
16502;SDS011;53067;48.114;11.694;2022-07-24T12:22:57;7.53;;;7.03;;
16502;SDS011;53067;48.114;11.694;2022-07-24T12:25:27;8.03;;;7.42;;
16502;SDS011;53067;48.114;11.694;2022-07-24T12:28:03;7.70;;;7.03;;
16502;SDS011;53067;48.114;11.694;2022-07-24T12:30:36;7.53;;;6.92;;
16502;SDS011;53067;48.114;11.694;2022-07-24T12:33:08;7.70;;;7.05;;
16502;SDS011;53067;48.114;11.694;2022-07-24T12:35:58;7.60;;;7.10;;
16502;SDS011;53067;48.114;11.694;2022-07-24T12:38:34;7.42;;;6.85;;
16502;SDS011;53067;48.114;11.694;2022-07-24T12:41:03;7.05;;;6.55;;
16502;SDS011;53067;48.114;11.694;2022-07-24T12:43:48;7.47;;;6.87;;
16502;SDS011;53067;48.114;11.694;2022-07-24T12:46:18;8.08;;;7.42;;
16502;SDS011;53067;48.114;11.694;2022-07-24T12:49:11;7.42;;;7.03;;
16502;SDS011;53067;48.114;11.694;2022-07-24T12:51:47;7.67;;;7.08;;
16502;SDS011;53067;48.114;11.694;2022-07-24T12:56:55;7.40;;;6.80;;
16502;SDS011;53067;48.114;11.694;2022-07-24T12:59:29;8.30;;;7.47;;
16502;SDS011;53067;48.114;11.694;2022-07-24T13:02:04;7.30;;;6.78;;
16502;SDS011;53067;48.114;11.694;2022-07-24T13:04:44;6.90;;;6.50;;
16502;SDS011;53067;48.114;11.694;2022-07-24T13:07:17;8.00;;;7.40;;
16502;SDS011;53067;48.114;11.694;2022-07-24T13:09:46;7.50;;;7.00;;
16502;SDS011;53067;48.114;11.694;2022-07-24T13:12:14;7.42;;;6.92;;
16502;SDS011;53067;48.114;11.694;2022-07-24T13:14:42;7.55;;;6.90;;
16502;SDS011;53067;48.114;11.694;2022-07-24T13:17:15;7.60;;;7.10;;
16502;SDS011;53067;48.114;11.694;2022-07-24T13:19:41;7.53;;;7.03;;
16502;SDS011;53067;48.114;11.694;2022-07-24T13:22:11;7.72;;;7.05;;
16502;SDS011;53067;48.114;11.694;2022-07-24T13:24:39;7.12;;;6.53;;
16502;SDS011;53067;48.114;11.694;2022-07-24T13:27:08;7.50;;;7.00;;
16502;SDS011;53067;48.114;11.694;2022-07-24T13:29:38;7.87;;;7.08;;
16502;SDS011;53067;48.114;11.694;2022-07-24T13:32:06;7.92;;;7.42;;
16502;SDS011;53067;48.114;11.694;2022-07-24T13:34:33;7.53;;;6.92;;
16502;SDS011;53067;48.114;11.694;2022-07-24T13:37:01;7.92;;;7.33;;
16502;SDS011;53067;48.114;11.694;2022-07-24T13:39:30;8.00;;;7.50;;
16502;SDS011;53067;48.114;11.694;2022-07-24T13:41:58;7.33;;;6.87;;
16502;SDS011;53067;48.114;11.694;2022-07-24T13:44:25;7.60;;;6.92;;
16502;SDS011;53067;48.114;11.694;2022-07-24T13:46:53;7.08;;;6.53;;
16502;SDS011;53067;48.114;11.694;2022-07-24T13:49:21;7.53;;;7.00;;
16502;SDS011;53067;48.114;11.694;2022-07-24T13:51:49;7.35;;;6.85;;
16502;SDS011;53067;48.114;11.694;2022-07-24T13:54:16;7.72;;;7.12;;
16502;SDS011;53067;48.114;11.694;2022-07-24T13:56:44;7.17;;;6.62;;
16502;SDS011;53067;48.114;11.694;2022-07-24T13:59:11;6.90;;;6.50;;
16502;SDS011;53067;48.114;11.694;2022-07-24T14:01:39;8.10;;;7.47;;
16502;SDS011;53067;48.114;11.694;2022-07-24T14:04:07;7.10;;;6.60;;
16502;SDS011;53067;48.114;11.694;2022-07-24T14:06:43;7.55;;;6.95;;
16502;SDS011;53067;48.114;11.694;2022-07-24T14:09:10;6.72;;;6.25;;
16502;SDS011;53067;48.114;11.694;2022-07-24T14:14:25;7.35;;;6.85;;
16502;SDS011;53067;48.114;11.694;2022-07-24T14:16:54;7.65;;;7.03;;
16502;SDS011;53067;48.114;11.694;2022-07-24T14:19:26;7.22;;;6.72;;
16502;SDS011;53067;48.114;11.694;2022-07-24T14:21:54;7.25;;;6.83;;
16502;SDS011;53067;48.114;11.694;2022-07-24T14:24:21;6.47;;;5.97;;
16502;SDS011;53067;48.114;11.694;2022-07-24T14:26:49;7.50;;;7.00;;
16502;SDS011;53067;48.114;11.694;2022-07-24T14:29:16;6.92;;;6.53;;
16502;SDS011;53067;48.114;11.694;2022-07-24T14:31:44;7.17;;;6.78;;
16502;SDS011;53067;48.114;11.694;2022-07-24T14:34:12;7.00;;;6.53;;
16502;SDS011;53067;48.114;11.694;2022-07-24T14:36:40;8.15;;;7.45;;
16502;SDS011;53067;48.114;11.694;2022-07-24T14:39:08;7.40;;;6.90;;
16502;SDS011;53067;48.114;11.694;2022-07-24T14:41:36;7.80;;;7.22;;
16502;SDS011;53067;48.114;11.694;2022-07-24T14:44:04;7.03;;;6.58;;
16502;SDS011;53067;48.114;11.694;2022-07-24T14:46:32;7.08;;;6.67;;
16502;SDS011;53067;48.114;11.694;2022-07-24T14:49:00;6.78;;;6.28;;
16502;SDS011;53067;48.114;11.694;2022-07-24T14:51:39;7.60;;;7.00;;
16502;SDS011;53067;48.114;11.694;2022-07-24T14:54:07;7.72;;;7.22;;
16502;SDS011;53067;48.114;11.694;2022-07-24T14:56:35;7.45;;;6.75;;
16502;SDS011;53067;48.114;11.694;2022-07-24T14:59:24;7.47;;;6.92;;
16502;SDS011;53067;48.114;11.694;2022-07-24T15:01:51;7.37;;;6.87;;
16502;SDS011;53067;48.114;11.694;2022-07-24T15:04:19;7.15;;;6.65;;
16502;SDS011;53067;48.114;11.694;2022-07-24T15:06:46;7.78;;;7.17;;
16502;SDS011;53067;48.114;11.694;2022-07-24T15:09:14;7.87;;;7.30;;
16502;SDS011;53067;48.114;11.694;2022-07-24T15:11:41;7.62;;;7.08;;
16502;SDS011;53067;48.114;11.694;2022-07-24T15:14:09;7.05;;;6.42;;
16502;SDS011;53067;48.114;11.694;2022-07-24T15:16:36;7.22;;;6.80;;
16502;SDS011;53067;48.114;11.694;2022-07-24T15:19:05;7.60;;;7.08;;